Time;durP1;ratioP1;P1;durP2;ratioP2;P2;SDS_P1;SDS_P2;PMS_P1;PMS_P2;Temp;Humidity;BMP_temperature;BMP_pressure;BME280_temperature;BME280_humidity;BME280_pressure;Samples;Min_cycle;Max_cycle;Signal;HPM_P1;HPM_P2
2022/10/19 00:01:16;;;;;;;17.83;13.85;;;;;;;19.14;56.24;94259.41;5011149;28;20109;-88
2022/10/19 00:03:42;;;;;;;18.40;13.65;;;;;;;19.16;55.97;94276.13;5011808;28;20099;-88
2022/10/19 00:06:23;;;;;;;17.52;12.60;;;;;;;19.14;56.15;94269.63;4979466;28;20460;-88
2022/10/19 00:08:49;;;;;;;18.50;13.20;;;;;;;19.14;56.07;94267.63;5008850;28;20153;-88
2022/10/19 00:11:14;;;;;;;18.45;12.75;;;;;;;19.15;56.11;94266.38;4975405;28;20038;-88
2022/10/19 00:13:40;;;;;;;16.00;12.10;;;;;;;19.14;56.00;94256.66;4976278;28;20384;-88
2022/10/19 00:16:10;;;;;;;17.95;13.00;;;;;;;19.14;56.06;94253.19;4982679;28;20053;-88
2022/10/19 00:18:35;;;;;;;19.83;13.18;;;;;;;19.14;55.97;94253.19;4995719;28;20038;-88
2022/10/19 00:21:04;;;;;;;21.52;15.00;;;;;;;19.17;55.93;94247.47;5011332;28;20040;-88
2022/10/19 00:23:30;;;;;;;17.30;12.35;;;;;;;19.16;55.45;94256.19;4993793;28;20045;-88
2022/10/19 00:25:55;;;;;;;17.58;13.02;;;;;;;19.15;56.19;94257.41;4994956;28;20454;-88
2022/10/19 00:28:21;;;;;;;16.20;11.57;;;;;;;19.14;56.14;94251.19;4984159;28;20061;-88
2022/10/19 00:30:46;;;;;;;19.90;13.60;;;;;;;19.14;56.06;94256.66;4977359;28;20038;-88
2022/10/19 00:33:12;;;;;;;19.92;11.70;;;;;;;19.14;56.12;94255.91;4990691;28;20096;-88
2022/10/19 00:35:40;;;;;;;18.77;12.32;;;;;;;19.14;56.09;94251.19;4994869;28;20034;-88
2022/10/19 00:38:06;;;;;;;19.15;12.55;;;;;;;19.15;55.81;94246.47;4974883;28;20042;-88
2022/10/19 00:40:38;;;;;;;18.00;11.75;;;;;;;19.12;56.03;94250.94;4981808;28;20030;-88
2022/10/19 00:43:04;;;;;;;13.98;10.25;;;;;;;19.12;55.95;94255.66;4991483;28;20235;-87
2022/10/19 00:45:29;;;;;;;15.07;11.68;;;;;;;19.13;55.73;94252.44;4991593;28;20052;-88
2022/10/19 00:47:55;;;;;;;18.88;12.02;;;;;;;19.12;55.91;94250.19;4979752;28;20050;-88
2022/10/19 00:50:20;;;;;;;15.55;10.60;;;;;;;19.13;55.86;94251.69;4988750;28;20037;-88
2022/10/19 00:52:46;;;;;;;17.83;12.00;;;;;;;19.13;56.15;94249.69;4998388;28;20042;-88
2022/10/19 00:55:11;;;;;;;15.63;11.80;;;;;;;19.13;55.86;94249.69;4965665;28;20450;-88
2022/10/19 00:57:36;;;;;;;14.32;10.82;;;;;;;19.15;55.91;94257.41;4959155;28;20455;-88
2022/10/19 01:00:04;;;;;;;18.38;12.27;;;;;;;19.13;55.89;94254.44;4975701;28;20524;-88
2022/10/19 01:02:29;;;;;;;16.80;11.77;;;;;;;19.11;55.64;94249.44;4981968;28;20092;-88
2022/10/19 01:04:54;;;;;;;17.30;10.60;;;;;;;19.13;55.77;94255.19;4993556;28;20045;-88
2022/10/19 01:07:20;;;;;;;13.82;10.50;;;;;;;19.13;55.92;94251.69;4994050;28;20037;-88
2022/10/19 01:09:45;;;;;;;17.70;11.23;;;;;;;19.12;55.82;94253.69;5010808;28;20037;-88
2022/10/19 01:12:17;;;;;;;15.02;10.32;;;;;;;19.13;55.97;94249.69;4990499;28;20038;-87
2022/10/19 01:14:54;;;;;;;20.35;12.43;;;;;;;19.14;55.81;94248.44;4981612;28;20037;-88
2022/10/19 01:17:54;;;;;;;16.85;11.30;;;;;;;19.11;55.78;94248.69;5024336;28;20163;-88
2022/10/19 01:20:25;;;;;;;14.88;10.88;;;;;;;19.12;55.87;94250.94;5006862;28;20045;-88
2022/10/19 01:22:57;;;;;;;16.75;11.07;;;;;;;19.11;55.81;94249.44;4974375;28;20424;-88
2022/10/19 01:25:25;;;;;;;14.57;10.25;;;;;;;19.12;56.00;94250.19;4990398;28;20508;-88
2022/10/19 01:28:15;;;;;;;15.27;10.65;;;;;;;19.11;55.96;94245.94;4990939;28;20500;-88
2022/10/19 01:30:55;;;;;;;15.65;11.80;;;;;;;19.12;55.77;94247.44;5011735;28;20049;-87
2022/10/19 01:33:25;;;;;;;16.17;10.55;;;;;;;19.10;55.78;94242.47;4994426;28;20045;-88
2022/10/19 01:36:05;;;;;;;14.73;10.25;;;;;;;19.10;55.82;94247.19;5010192;28;20042;-88
2022/10/19 01:38:36;;;;;;;15.52;11.63;;;;;;;19.12;55.73;94244.72;4995311;28;20038;-88
2022/10/19 01:41:18;;;;;;;14.23;9.93;;;;;;;19.09;55.77;94243.69;4988249;28;20065;-88
2022/10/19 01:43:59;;;;;;;13.60;9.05;;;;;;;19.09;55.59;94240.97;4992250;28;20034;-88
2022/10/19 01:46:31;;;;;;;17.52;10.10;;;;;;;19.11;56.00;94229.50;4993487;28;20091;-88
2022/10/19 01:49:01;;;;;;;14.30;9.73;;;;;;;19.11;55.87;94232.25;4994045;28;20045;-88
2022/10/19 01:51:29;;;;;;;15.23;9.02;;;;;;;19.09;55.95;94227.25;4993598;28;20439;-88
2022/10/19 01:53:56;;;;;;;15.27;10.32;;;;;;;19.09;55.97;94232.00;4991301;28;20172;-88
2022/10/19 01:56:24;;;;;;;12.15;9.70;;;;;;;19.07;55.82;94235.22;4987895;28;20191;-88
2022/10/19 01:58:49;;;;;;;13.73;9.32;;;;;;;19.09;56.00;94246.44;4977551;28;20032;-88
2022/10/19 02:01:15;;;;;;;14.60;10.45;;;;;;;19.09;55.80;94238.22;4966908;28;20042;-88
2022/10/19 02:03:41;;;;;;;14.48;10.57;;;;;;;19.08;55.78;94244.19;4974332;28;20034;-88
2022/10/19 02:06:07;;;;;;;15.35;9.45;;;;;;;19.07;55.74;94237.97;4982374;28;20041;-88
2022/10/19 02:08:39;;;;;;;14.95;9.75;;;;;;;19.08;55.70;94230.50;4993274;28;20114;-88
2022/10/19 02:11:04;;;;;;;16.58;10.77;;;;;;;19.07;55.90;94240.69;4976783;28;20503;-88
2022/10/19 02:13:30;;;;;;;14.00;10.25;;;;;;;19.09;56.02;94232.72;4993342;28;20064;-88
2022/10/19 02:15:55;;;;;;;14.07;9.35;;;;;;;19.07;55.68;94227.00;4992343;28;20590;-88
2022/10/19 02:18:24;;;;;;;15.05;9.65;;;;;;;19.07;55.81;94232.47;4979194;28;20041;-89
2022/10/19 02:20:49;;;;;;;12.20;8.95;;;;;;;19.08;55.73;94225.00;4989557;28;20097;-88
2022/10/19 02:23:16;;;;;;;12.20;8.60;;;;;;;19.07;55.71;94224.25;4973050;28;20567;-88
2022/10/19 02:25:41;;;;;;;12.10;9.18;;;;;;;19.08;55.60;94228.50;4989939;28;20034;-88
2022/10/19 02:28:06;;;;;;;14.18;9.80;;;;;;;19.07;55.78;94227.00;4989080;28;20524;-88
2022/10/19 02:30:32;;;;;;;12.98;8.93;;;;;;;19.07;55.84;94235.22;4973524;28;20065;-88
2022/10/19 02:32:57;;;;;;;13.90;9.50;;;;;;;19.06;55.91;94230.22;4973219;28;20046;-88
2022/10/19 02:35:23;;;;;;;11.82;8.90;;;;;;;19.08;55.73;94214.03;4972935;28;20299;-88
2022/10/19 02:37:48;;;;;;;13.75;10.18;;;;;;;19.10;55.59;94219.78;4990219;28;20411;-88
2022/10/19 02:40:13;;;;;;;12.23;9.35;;;;;;;19.09;55.75;94219.03;4974277;28;20060;-87
2022/10/19 02:42:57;;;;;;;15.05;10.27;;;;;;;19.09;55.73;94218.28;5005264;28;20029;-88
2022/10/19 02:45:27;;;;;;;12.30;8.80;;;;;;;19.07;55.73;94210.56;5009056;28;20064;-88
2022/10/19 02:47:58;;;;;;;11.57;8.85;;;;;;;19.09;55.57;94212.81;5008973;28;20042;-88
2022/10/19 02:50:24;;;;;;;11.40;8.82;;;;;;;19.07;55.73;94216.03;4998223;28;20505;-88
2022/10/19 02:52:49;;;;;;;13.45;9.18;;;;;;;19.08;55.76;94201.09;4984413;28;20038;-88
2022/10/19 02:55:15;;;;;;;13.43;8.57;;;;;;;19.07;55.54;94204.31;4988859;28;20498;-88
2022/10/19 02:57:40;;;;;;;10.30;7.65;;;;;;;19.06;55.80;94206.31;4987221;28;20122;-88
2022/10/19 03:00:06;;;;;;;12.15;8.13;;;;;;;19.07;55.86;94198.84;4972716;28;20041;-88
2022/10/19 03:02:32;;;;;;;15.38;8.27;;;;;;;19.05;55.95;94198.63;4967014;28;20504;-88
2022/10/19 03:04:57;;;;;;;12.18;8.27;;;;;;;19.05;55.86;94201.34;4989175;28;20041;-88
2022/10/19 03:07:23;;;;;;;12.65;7.85;;;;;;;19.07;55.82;94196.84;4985820;28;20048;-88
2022/10/19 03:09:48;;;;;;;12.52;8.90;;;;;;;19.08;55.59;94192.13;4992626;28;20052;-88
2022/10/19 03:12:14;;;;;;;12.55;9.07;;;;;;;19.07;55.78;94204.31;5007950;28;20057;-88
2022/10/19 03:14:39;;;;;;;15.10;10.18;;;;;;;19.07;55.54;94191.38;4976379;28;20546;-88
2022/10/19 03:17:05;;;;;;;13.80;9.00;;;;;;;19.07;55.57;94187.88;4986009;28;20038;-88
2022/10/19 03:19:30;;;;;;;11.38;8.52;;;;;;;19.06;55.71;94194.59;4979528;28;20319;-88
2022/10/19 03:21:57;;;;;;;11.70;8.07;;;;;;;19.09;55.47;94183.41;4980039;28;20044;-88
2022/10/19 03:24:22;;;;;;;14.13;9.40;;;;;;;19.07;55.72;94193.38;4993689;28;22838;-88
2022/10/19 03:26:47;;;;;;;14.23;9.02;;;;;;;19.07;55.65;94185.91;4997525;28;20447;-88
2022/10/19 03:29:13;;;;;;;13.23;9.65;;;;;;;19.09;55.65;94201.84;5008148;28;20046;-88
2022/10/19 03:31:38;;;;;;;13.77;9.77;;;;;;;19.06;55.68;94186.38;4979720;28;20502;-88
2022/10/19 03:34:03;;;;;;;13.65;9.73;;;;;;;19.06;55.55;94194.59;4995705;28;20045;-88
2022/10/19 03:36:33;;;;;;;14.98;9.10;;;;;;;19.07;55.61;94190.63;4979470;28;20041;-87
2022/10/19 03:39:00;;;;;;;10.70;8.27;;;;;;;19.06;55.33;94189.88;5012948;28;20060;-88
2022/10/19 03:41:27;;;;;;;11.23;7.80;;;;;;;19.06;55.52;94194.59;4973587;28;20034;-90
2022/10/19 03:43:53;;;;;;;10.30;6.65;;;;;;;19.06;55.55;94187.13;4996160;28;20044;-88
2022/10/19 03:46:18;;;;;;;10.07;7.32;;;;;;;19.06;55.74;94186.38;4995310;28;20041;-89
2022/10/19 03:48:44;;;;;;;10.75;7.25;;;;;;;19.06;55.58;94189.88;4980573;28;20042;-90
2022/10/19 03:51:11;;;;;;;11.45;8.95;;;;;;;19.08;55.55;94183.91;4979202;28;20455;-91
2022/10/19 03:53:37;;;;;;;12.85;7.10;;;;;;;19.09;55.45;94186.16;4986956;28;20068;-87
2022/10/19 03:56:04;;;;;;;18.52;12.18;;;;;;;19.09;55.44;94185.41;4976267;28;20378;-88
2022/10/19 03:58:30;;;;;;;24.00;14.98;;;;;;;19.09;55.49;94186.16;4981846;28;20037;-89
2022/10/19 04:00:56;;;;;;;27.73;17.15;;;;;;;19.09;55.63;94177.94;4976079;28;20547;-89
2022/10/19 04:03:21;;;;;;;28.67;17.80;;;;;;;19.10;55.47;94178.66;4992632;28;20049;-90
2022/10/19 04:05:47;;;;;;;27.52;17.60;;;;;;;19.07;55.58;94166.72;4998253;28;20207;-89
2022/10/19 04:08:12;;;;;;;29.73;16.70;;;;;;;19.07;55.47;94163.97;4998544;28;20045;-89
2022/10/19 04:10:37;;;;;;;31.63;19.95;;;;;;;19.06;55.48;94157.00;4998921;28;20060;-88
2022/10/19 04:13:03;;;;;;;29.45;16.05;;;;;;;19.05;55.85;94154.78;5005600;28;20053;-90
2022/10/19 04:15:28;;;;;;;24.95;16.75;;;;;;;19.05;55.43;94152.03;4990034;28;20045;-91
2022/10/19 04:17:54;;;;;;;27.00;16.67;;;;;;;19.05;55.30;94147.28;4997467;28;20049;-90
2022/10/19 04:20:19;;;;;;;33.40;18.17;;;;;;;19.06;55.41;94153.50;4995862;28;20087;-90
2022/10/19 04:22:45;;;;;;;30.50;19.33;;;;;;;19.06;55.32;94158.97;4984850;28;20487;-89
2022/10/19 04:25:11;;;;;;;29.73;18.20;;;;;;;19.05;55.25;94147.28;4990512;28;20046;-89
2022/10/19 04:27:36;;;;;;;33.25;18.30;;;;;;;19.06;55.41;94154.25;4987217;28;20069;-88
2022/10/19 04:30:02;;;;;;;35.83;18.98;;;;;;;19.08;55.66;94159.25;4989885;28;20077;-89
2022/10/19 04:32:28;;;;;;;36.40;21.00;;;;;;;19.12;55.68;94154.25;5011903;28;20033;-88
2022/10/19 04:34:53;;;;;;;60.63;38.47;;;;;;;19.15;55.74;94156.00;5012086;28;20045;-92
2022/10/19 04:37:19;;;;;;;50.95;25.98;;;;;;;19.18;56.06;94149.53;4975537;28;20041;-89
2022/10/19 04:39:44;;;;;;;64.43;31.60;;;;;;;19.23;55.86;94153.53;4982257;28;20046;-89
2022/10/19 04:42:10;;;;;;;58.88;32.08;;;;;;;19.24;55.79;94168.75;4990027;28;20060;-86
2022/10/19 04:44:35;;;;;;;66.75;35.70;;;;;;;19.23;55.27;94154.28;4991515;28;20037;-92
2022/10/19 04:47:01;;;;;;;71.22;39.65;;;;;;;19.26;55.38;94150.53;4989284;28;20042;-88
2022/10/19 04:49:26;;;;;;;82.95;42.58;;;;;;;19.26;55.20;94150.53;4976743;28;20084;-89
2022/10/19 04:51:51;;;;;;;89.75;39.53;;;;;;;19.23;54.72;94151.53;5002491;28;20045;-89
2022/10/19 04:54:17;;;;;;;74.13;33.88;;;;;;;19.23;55.17;94151.53;5013372;28;20045;-91
2022/10/19 04:56:42;;;;;;;69.50;35.15;;;;;;;19.23;55.39;94151.53;4998985;28;20029;-91
2022/10/19 04:59:08;;;;;;;65.70;35.33;;;;;;;19.18;55.24;94150.28;4999505;28;20054;-91
2022/10/19 05:01:35;;;;;;;75.03;36.60;;;;;;;19.20;54.89;94149.03;5014555;28;20498;-91
2022/10/19 05:04:01;;;;;;;86.43;39.25;;;;;;;19.14;55.26;94144.31;4984271;28;20141;-91
2022/10/19 05:06:27;;;;;;;77.40;34.35;;;;;;;19.17;55.40;94148.78;4975253;28;20034;-91
2022/10/19 05:08:53;;;;;;;121.00;57.30;;;;;;;19.17;55.35;94156.25;4971283;28;20039;-91
2022/10/19 05:11:18;;;;;;;249.20;101.13;;;;;;;19.10;54.80;94149.28;4995279;28;20030;-91
2022/10/19 05:13:44;;;;;;;109.00;38.72;;;;;;;19.06;54.51;94150.75;5001121;28;20087;-91
2022/10/19 05:16:11;;;;;;;111.95;38.47;;;;;;;19.02;53.93;94156.50;5018322;28;20112;-90
2022/10/19 05:18:36;;;;;;;102.78;28.60;;;;;;;18.95;54.12;94161.72;4979725;28;20061;-92
2022/10/19 05:21:06;;;;;;;119.75;42.97;;;;;;;18.99;54.18;94148.53;5020742;28;20120;-90
2022/10/19 05:23:31;;;;;;;68.30;22.38;;;;;;;18.94;54.12;94158.25;4998172;28;20034;-91
2022/10/19 05:26:14;;;;;;;96.00;27.63;;;;;;;18.92;54.07;94157.97;4980646;28;20034;-91
2022/10/19 05:28:39;;;;;;;93.07;26.90;;;;;;;18.92;53.94;94166.19;4982346;28;20068;-89
2022/10/19 05:31:09;;;;;;;91.70;32.20;;;;;;;18.84;54.31;94163.19;4988744;28;20045;-89
2022/10/19 05:33:35;;;;;;;96.00;36.58;;;;;;;18.84;54.36;94165.94;4994483;28;20057;-90
2022/10/19 05:36:17;;;;;;;77.28;32.72;;;;;;;18.82;54.56;94170.44;4996386;28;20033;-89
2022/10/19 05:38:43;;;;;;;97.63;30.95;;;;;;;18.77;54.49;94174.66;4991052;28;20042;-89
2022/10/19 05:41:08;;;;;;;74.80;28.00;;;;;;;18.77;54.60;94160.19;4982779;28;20065;-91
2022/10/19 05:43:34;;;;;;;57.67;23.33;;;;;;;18.82;54.64;94159.47;4981425;28;20524;-90
2022/10/19 05:46:07;;;;;;;60.47;26.30;;;;;;;18.84;54.45;94159.69;4988280;28;20038;-89
2022/10/19 05:48:33;;;;;;;65.70;31.40;;;;;;;18.83;54.59;94169.94;5003044;28;20096;-90
2022/10/19 05:50:59;;;;;;;78.40;32.15;;;;;;;18.91;54.72;94174.91;4997367;28;20045;-89
2022/10/19 05:53:25;;;;;;;63.63;27.92;;;;;;;18.87;54.80;94163.44;4974646;28;20041;-91
2022/10/19 05:55:51;;;;;;;59.63;26.88;;;;;;;18.88;54.86;94171.16;4996283;28;20052;-91
2022/10/19 05:58:17;;;;;;;80.35;34.10;;;;;;;18.93;54.84;94164.22;4978305;28;20042;-88
2022/10/19 06:00:42;;;;;;;72.50;35.63;;;;;;;18.93;54.69;94161.47;5000589;28;20060;-89
2022/10/19 06:03:08;;;;;;;69.68;36.60;;;;;;;18.95;54.90;94164.47;5005931;28;20465;-90
2022/10/19 06:05:35;;;;;;;91.47;40.47;;;;;;;18.97;54.73;94162.72;4973068;28;20503;-87
2022/10/19 06:08:00;;;;;;;77.75;41.55;;;;;;;19.01;54.75;94165.97;4989731;28;20041;-88
2022/10/19 06:10:26;;;;;;;74.95;40.90;;;;;;;19.02;54.93;94166.72;4997261;28;20043;-87
2022/10/19 06:12:51;;;;;;;74.85;39.42;;;;;;;19.04;54.75;94159.50;4995524;28;20052;-87
2022/10/19 06:15:18;;;;;;;78.35;38.47;;;;;;;19.05;54.70;94157.50;4994115;28;20034;-89
2022/10/19 06:17:43;;;;;;;74.03;40.08;;;;;;;19.08;54.70;94165.47;4982671;28;20049;-89
2022/10/19 06:20:10;;;;;;;72.32;40.80;;;;;;;19.09;54.35;94166.22;4966803;28;20030;-85
2022/10/19 06:22:35;;;;;;;84.10;43.60;;;;;;;19.10;54.46;94159.50;5010943;28;20132;-86
2022/10/19 06:25:01;;;;;;;77.43;42.28;;;;;;;19.13;54.42;94159.25;4977439;28;20029;-88
2022/10/19 06:27:26;;;;;;;84.90;44.90;;;;;;;19.11;54.42;94155.50;4990717;28;20041;-90
2022/10/19 06:29:52;;;;;;;89.00;45.97;;;;;;;19.10;54.53;94162.97;4991809;28;20454;-90
2022/10/19 06:32:17;;;;;;;95.40;45.55;;;;;;;19.16;54.50;94169.22;4992167;28;20030;-90
2022/10/19 06:34:44;;;;;;;87.25;46.25;;;;;;;19.15;54.61;94166.97;5003057;28;20038;-90
2022/10/19 06:37:09;;;;;;;105.13;49.70;;;;;;;19.13;54.61;94174.94;5006769;28;20073;-89
2022/10/19 06:39:34;;;;;;;101.10;50.05;;;;;;;19.15;54.56;94173.22;4991517;28;20116;-92
2022/10/19 06:42:02;;;;;;;103.00;52.70;;;;;;;19.14;54.50;94168.97;5013511;28;20041;-91
2022/10/19 06:44:27;;;;;;;107.85;56.60;;;;;;;19.14;54.63;94177.19;4998964;28;20044;-91
2022/10/19 06:47:01;;;;;;;131.50;62.80;;;;;;;19.14;54.49;94179.19;5013417;28;20260;-92
2022/10/19 06:49:27;;;;;;;128.57;59.78;;;;;;;19.18;54.53;94183.19;4929545;28;20058;-92
2022/10/19 06:51:53;;;;;;;135.48;62.95;;;;;;;19.17;54.43;94191.91;4946924;28;20138;-93
2022/10/19 06:54:19;;;;;;;132.45;61.63;;;;;;;19.19;54.59;94203.13;4941478;29;20087;-93
2022/10/19 06:56:44;;;;;;;126.97;60.95;;;;;;;19.18;54.58;94198.88;4932842;29;20047;-90
2022/10/19 06:59:11;;;;;;;115.60;55.95;;;;;;;19.21;54.54;94208.84;4926910;29;20035;-92
2022/10/19 07:01:37;;;;;;;106.85;53.47;;;;;;;19.21;54.49;94205.34;4934176;28;20121;-90
2022/10/19 07:04:02;;;;;;;100.15;50.88;;;;;;;19.20;54.66;94212.09;4941870;28;20043;-91
2022/10/19 07:06:28;;;;;;;119.95;51.88;;;;;;;19.19;54.54;94208.59;4921555;29;20058;-92
2022/10/19 07:08:53;;;;;;;133.57;59.45;;;;;;;19.19;54.20;94211.34;4937313;28;20106;-91
2022/10/19 07:11:21;;;;;;;124.10;59.72;;;;;;;19.17;54.58;94209.09;4908656;29;20044;-92
2022/10/19 07:13:47;;;;;;;151.68;70.93;;;;;;;19.21;54.52;94217.06;4940860;28;20039;-92
2022/10/19 07:16:14;;;;;;;152.73;73.22;;;;;;;19.18;54.73;94215.31;4933819;28;20103;-91
2022/10/19 07:18:42;;;;;;;128.40;65.75;;;;;;;19.17;54.54;94206.34;4945212;28;20054;-92
2022/10/19 07:21:11;;;;;;;55.75;31.83;;;;;;;19.14;54.47;94201.09;4936138;28;20039;-91
2022/10/19 07:23:46;;;;;;;49.88;27.08;;;;;;;19.13;54.55;94210.56;4936104;28;20043;-93
2022/10/19 07:26:16;;;;;;;43.05;21.63;;;;;;;19.09;54.68;94208.06;4943712;28;20039;-93
2022/10/19 07:28:42;;;;;;;52.10;23.35;;;;;;;19.09;54.53;94202.59;4939993;28;20043;-91
2022/10/19 07:31:10;;;;;;;49.30;22.50;;;;;;;19.05;54.44;94209.59;4928066;28;20138;-91
2022/10/19 07:33:35;;;;;;;65.90;25.65;;;;;;;19.04;54.81;94205.34;4960540;28;20546;-89
2022/10/19 07:36:01;;;;;;;60.05;23.23;;;;;;;19.01;54.65;94212.56;4959100;28;20054;-90
2022/10/19 07:38:28;;;;;;;60.03;21.10;;;;;;;18.97;55.13;94211.28;4970218;28;20242;-89
2022/10/19 07:41:02;;;;;;;37.72;19.20;;;;;;;18.96;55.03;94207.06;4959373;28;20050;-92
2022/10/19 07:43:35;;;;;;;56.28;22.20;;;;;;;18.95;55.27;94211.78;4981868;28;20034;-91
2022/10/19 07:46:02;;;;;;;50.83;20.50;;;;;;;18.97;55.28;94205.81;4996380;28;20041;-90
2022/10/19 07:48:30;;;;;;;79.32;22.00;;;;;;;18.91;55.65;94221.50;4987327;28;20551;-91
2022/10/19 07:50:55;;;;;;;78.10;22.52;;;;;;;18.91;55.29;94218.75;4966829;28;20660;-91
2022/10/19 07:53:21;;;;;;;45.35;20.13;;;;;;;18.87;55.68;94216.25;4977638;28;20041;-91
2022/10/19 07:55:46;;;;;;;49.00;20.27;;;;;;;18.92;55.98;94221.00;5023017;28;20056;-90
2022/10/19 07:58:12;;;;;;;57.35;20.02;;;;;;;18.90;55.96;94217.25;5009238;28;20593;-90
2022/10/19 08:00:37;;;;;;;80.22;22.52;;;;;;;18.85;55.80;94221.47;5014225;28;20041;-90
2022/10/19 08:03:03;;;;;;;41.45;16.00;;;;;;;18.89;55.46;94215.75;5016437;28;20059;-90
2022/10/19 08:05:32;;;;;;;29.05;12.65;;;;;;;18.84;55.63;94217.97;5012259;28;20037;-91
2022/10/19 08:08:00;;;;;;;109.00;24.65;;;;;;;18.85;55.89;94213.25;5004474;28;20053;-93
2022/10/19 08:10:26;;;;;;;84.55;18.58;;;;;;;18.85;55.86;94218.72;5021818;28;20116;-92
2022/10/19 08:12:51;;;;;;;61.15;16.55;;;;;;;18.83;56.08;94222.00;4991404;28;20045;-90
2022/10/19 08:15:18;;;;;;;226.57;38.60;;;;;;;18.81;56.21;94220.97;5003900;28;20104;-91
2022/10/19 08:17:43;;;;;;;273.38;46.42;;;;;;;18.82;56.17;94214.25;5030387;28;20043;-90
2022/10/19 08:20:09;;;;;;;118.15;25.73;;;;;;;18.81;56.13;94226.47;5012798;28;20053;-91
2022/10/19 08:22:34;;;;;;;99.47;23.35;;;;;;;18.84;56.37;94211.75;5011443;28;20025;-88
2022/10/19 08:25:00;;;;;;;43.92;14.23;;;;;;;18.82;56.64;94215.00;5011104;28;20037;-91
2022/10/19 08:27:25;;;;;;;27.83;12.20;;;;;;;18.82;56.55;94212.28;5026519;28;20047;-89
2022/10/19 08:29:51;;;;;;;44.75;11.55;;;;;;;18.82;56.32;94212.28;5012386;28;20041;-88
2022/10/19 08:32:17;;;;;;;41.53;12.15;;;;;;;18.82;56.24;94215.00;5012710;28;20033;-89
2022/10/19 08:34:43;;;;;;;27.73;9.07;;;;;;;18.84;56.04;94209.75;5015764;28;20120;-89
2022/10/19 08:37:08;;;;;;;21.10;9.23;;;;;;;18.81;56.61;94210.03;4995933;28;20456;-88
2022/10/19 08:39:33;;;;;;;51.67;14.15;;;;;;;18.84;56.42;94209.75;5004653;28;20132;-90
2022/10/19 08:42:05;;;;;;;32.78;10.70;;;;;;;18.85;56.54;94202.28;4995965;28;20033;-90
2022/10/19 08:44:51;;;;;;;33.75;12.20;;;;;;;18.84;56.70;94207.03;4998773;28;20047;-89
2022/10/19 08:47:54;;;;;;;31.45;13.07;;;;;;;18.84;56.45;94212.50;5014962;28;20052;-90
2022/10/19 08:50:25;;;;;;;29.40;12.80;;;;;;;18.82;56.43;94222.47;5032338;28;20076;-91
2022/10/19 08:52:58;;;;;;;26.92;13.77;;;;;;;18.80;56.46;94212.00;5016592;28;20331;-91
2022/10/19 08:56:01;;;;;;;32.58;15.98;;;;;;;18.81;56.12;94212.75;4969410;28;20061;-93
2022/10/19 08:58:58;;;;;;;41.72;19.65;;;;;;;18.81;55.63;94220.97;5034435;28;20045;-95
2022/10/19 09:01:29;;;;;;;219.43;47.75;;;;;;;18.81;55.62;94212.75;5025402;28;20049;-88
2022/10/19 09:04:05;;;;;;;86.63;30.88;;;;;;;18.83;55.56;94213.03;5031240;28;20506;-88
2022/10/19 09:06:43;;;;;;;46.70;17.45;;;;;;;18.81;55.41;94213.50;5028589;28;20044;-89
2022/10/19 09:09:11;;;;;;;68.72;23.25;;;;;;;18.83;55.57;94223.97;5017246;28;20399;-92
2022/10/19 09:11:37;;;;;;;151.15;31.70;;;;;;;18.84;55.35;94223.47;5011150;28;20041;-92
2022/10/19 09:14:10;;;;;;;95.70;22.83;;;;;;;18.85;55.33;94218.72;5012936;28;20045;-90
2022/10/19 09:16:36;;;;;;;73.10;23.10;;;;;;;18.87;55.15;94229.94;5018058;28;20041;-89
2022/10/19 09:19:10;;;;;;;63.05;18.67;;;;;;;18.84;55.22;94220.72;5015283;28;20044;-91
2022/10/19 09:21:41;;;;;;;36.33;14.15;;;;;;;18.84;54.77;94217.97;4996876;28;20447;-89
2022/10/19 09:24:38;;;;;;;24.40;13.73;;;;;;;18.86;55.03;94214.75;4987900;28;20034;-90
2022/10/19 09:27:03;;;;;;;44.72;17.23;;;;;;;18.84;54.95;94214.50;5000835;28;20042;-90
2022/10/19 09:29:35;;;;;;;39.45;19.17;;;;;;;18.87;55.01;94218.97;5001962;28;20033;-88
2022/10/19 09:32:09;;;;;;;42.55;19.88;;;;;;;18.90;54.71;94215.25;5034926;28;20037;-89
2022/10/19 09:34:37;;;;;;;50.78;23.92;;;;;;;18.86;54.73;94211.25;5016505;28;20059;-89
2022/10/19 09:37:02;;;;;;;35.88;18.77;;;;;;;18.87;54.59;94216.25;4988323;28;20052;-89
2022/10/19 09:39:29;;;;;;;31.45;15.00;;;;;;;18.83;54.45;94213.78;5011721;28;20045;-90
2022/10/19 09:42:18;;;;;;;39.70;15.18;;;;;;;18.85;54.47;94210.50;5006791;28;20573;-91
2022/10/19 09:44:43;;;;;;;42.20;16.45;;;;;;;18.83;54.30;94208.28;5023876;28;20025;-89
2022/10/19 09:47:36;;;;;;;39.78;15.35;;;;;;;18.88;54.27;94209.53;4989677;28;20045;-91
2022/10/19 09:50:22;;;;;;;37.30;14.20;;;;;;;18.90;54.40;94214.50;5038465;28;20099;-88
2022/10/19 09:52:51;;;;;;;29.02;12.02;;;;;;;18.92;54.24;94207.31;5024328;28;20052;-89
2022/10/19 09:55:18;;;;;;;49.45;17.73;;;;;;;18.91;54.72;94205.06;4998859;28;20114;-88
2022/10/19 09:57:47;;;;;;;36.03;15.50;;;;;;;18.88;54.92;94206.78;5007203;28;20045;-88
2022/10/19 10:00:23;;;;;;;29.48;14.23;;;;;;;18.91;55.06;94202.31;5017808;28;20040;-90
2022/10/19 10:02:50;;;;;;;37.88;13.32;;;;;;;18.93;54.96;94211.53;5015526;28;20523;-90
2022/10/19 10:05:15;;;;;;;32.08;12.23;;;;;;;18.91;54.98;94213.28;4984353;28;20049;-88
2022/10/19 10:07:41;;;;;;;25.55;10.68;;;;;;;18.90;54.93;94218.00;5019067;28;20033;-88
2022/10/19 10:10:33;;;;;;;23.13;11.15;;;;;;;18.94;54.71;94215.03;5009823;28;20123;-90
2022/10/19 10:12:58;;;;;;;22.80;10.93;;;;;;;18.92;54.75;94210.03;5012427;28;20041;-90
2022/10/19 10:15:31;;;;;;;19.85;8.27;;;;;;;18.89;54.09;94208.28;5034153;28;20071;-95
2022/10/19 10:18:05;;;;;;;21.67;8.05;;;;;;;18.88;54.46;94201.31;4998172;28;20104;-89
2022/10/19 10:21:15;;;;;;;12.77;6.35;;;;;;;18.86;54.43;94206.53;5003771;28;20041;-93
2022/10/19 10:24:12;;;;;;;23.70;16.27;;;;;;;18.88;54.14;94198.56;5021106;28;20052;-92
2022/10/19 10:26:39;;;;;;;22.02;13.88;;;;;;;18.89;53.94;94207.53;5023153;28;20041;-91
2022/10/19 10:29:18;;;;;;;22.02;10.80;;;;;;;18.87;54.33;94207.28;4954151;28;20396;-90
2022/10/19 10:31:44;;;;;;;11.98;6.80;;;;;;;18.89;53.93;94199.31;5018487;28;20132;-89
2022/10/19 10:34:17;;;;;;;9.02;5.20;;;;;;;18.87;54.00;94199.06;4995035;28;20038;-90
2022/10/19 10:36:44;;;;;;;7.07;4.90;;;;;;;18.84;53.73;94195.31;4980448;28;20281;-90
2022/10/19 10:39:13;;;;;;;17.48;14.25;;;;;;;18.84;53.76;94192.56;5007155;28;20037;-92
2022/10/19 10:41:39;;;;;;;15.65;10.25;;;;;;;18.86;53.46;94197.56;5009083;28;20108;-91
2022/10/19 10:44:06;;;;;;;9.02;7.43;;;;;;;18.86;53.49;94192.81;4991437;28;20046;-89
2022/10/19 10:47:00;;;;;;;8.80;7.22;;;;;;;18.86;53.57;94198.31;5013847;28;20129;-92
2022/10/19 10:52:06;;;;;;;7.25;5.00;;;;;;;18.83;53.71;94188.38;5266501;22;20067;-91
2022/10/19 10:54:32;;;;;;;6.95;4.03;;;;;;;18.83;53.43;94191.84;5070377;28;20043;-91
2022/10/19 10:57:11;;;;;;;7.35;4.25;;;;;;;18.82;53.11;94184.88;5055474;28;20534;-91
2022/10/19 10:59:47;;;;;;;8.57;4.00;;;;;;;18.83;52.52;94191.84;5083353;28;20036;-91
2022/10/19 11:02:33;;;;;;;6.07;3.47;;;;;;;18.83;52.39;94183.63;5070594;28;20048;-90
2022/10/19 11:05:14;;;;;;;12.18;5.50;;;;;;;18.83;51.81;94182.88;5052771;28;20059;-90
2022/10/19 11:07:43;;;;;;;14.35;6.90;;;;;;;18.83;51.87;94174.66;5039038;28;20100;-92
2022/10/19 11:10:24;;;;;;;6.65;5.03;;;;;;;18.80;51.81;94178.41;5020590;28;20049;-91
2022/10/19 11:13:14;;;;;;;5.95;5.05;;;;;;;18.82;51.58;94171.19;5043795;28;20112;-90
2022/10/19 11:15:56;;;;;;;17.35;8.23;;;;;;;18.82;51.88;94164.94;5070729;28;20051;-89
2022/10/19 11:21:05;;;;;;;34.53;23.65;;;;;;;18.86;51.94;94159.22;5063423;22;20045;-89
2022/10/19 11:23:51;;;;;;;15.57;8.55;;;;;;;18.89;51.97;94158.22;4995118;28;20041;-89
2022/10/19 11:26:34;;;;;;;16.50;7.93;;;;;;;18.93;51.61;94154.00;5057743;28;20045;-91
2022/10/19 11:29:02;;;;;;;16.73;8.95;;;;;;;18.92;51.49;94157.22;5020264;28;20049;-90
2022/10/19 11:31:36;;;;;;;19.52;10.07;;;;;;;18.91;51.79;94158.47;5048036;28;20076;-91
2022/10/19 11:34:02;;;;;;;15.85;9.60;;;;;;;18.87;51.98;94153.25;5032668;28;20041;-91